sensor_id;sensor_type;location;lat;lon;timestamp;pressure;altitude;pressure_sealevel;temperature;humidity
36234;BME280;43467;50.890;5.982;2022-10-17T00:01:04;100277.69;;;18.32;86.88
36234;BME280;43467;50.890;5.982;2022-10-17T00:03:30;100280.38;;;18.32;86.63
36234;BME280;43467;50.890;5.982;2022-10-17T00:05:55;100287.44;;;18.33;86.45
36234;BME280;43467;50.890;5.982;2022-10-17T00:08:21;100279.25;;;18.34;86.66
36234;BME280;43467;50.890;5.982;2022-10-17T00:10:58;100280.38;;;18.32;86.70
36234;BME280;43467;50.890;5.982;2022-10-17T00:13:25;100275.00;;;18.32;86.85
36234;BME280;43467;50.890;5.982;2022-10-17T00:15:50;100271.13;;;18.36;86.16
36234;BME280;43467;50.890;5.982;2022-10-17T00:18:16;100281.84;;;18.36;86.30
36234;BME280;43467;50.890;5.982;2022-10-17T00:20:41;100278.28;;;18.35;86.27
36234;BME280;43467;50.890;5.982;2022-10-17T00:23:06;100285.38;;;18.36;86.02
36234;BME280;43467;50.890;5.982;2022-10-17T00:25:32;100286.47;;;18.34;86.63
36234;BME280;43467;50.890;5.982;2022-10-17T00:27:57;100280.25;;;18.33;86.40
36234;BME280;43467;50.890;5.982;2022-10-17T00:30:22;100284.63;;;18.34;86.30
36234;BME280;43467;50.890;5.982;2022-10-17T00:32:48;100282.81;;;18.35;86.36
36234;BME280;43467;50.890;5.982;2022-10-17T00:35:13;100281.13;;;18.34;86.24
36234;BME280;43467;50.890;5.982;2022-10-17T00:37:39;100284.53;;;18.36;86.14
36234;BME280;43467;50.890;5.982;2022-10-17T00:40:05;100272.09;;;18.35;86.11
36234;BME280;43467;50.890;5.982;2022-10-17T00:42:31;100280.13;;;18.35;86.36
36234;BME280;43467;50.890;5.982;2022-10-17T00:45:07;100285.38;;;18.36;85.94
36234;BME280;43467;50.890;5.982;2022-10-17T00:47:36;100284.63;;;18.34;86.15
36234;BME280;43467;50.890;5.982;2022-10-17T00:50:03;100283.28;;;18.29;85.99
36234;BME280;43467;50.890;5.982;2022-10-17T00:52:30;100287.31;;;18.34;86.04
36234;BME280;43467;50.890;5.982;2022-10-17T00:55:09;100285.38;;;18.36;85.86
36234;BME280;43467;50.890;5.982;2022-10-17T00:57:37;100277.34;;;18.36;85.96
36234;BME280;43467;50.890;5.982;2022-10-17T01:00:07;100284.53;;;18.36;85.90
36234;BME280;43467;50.890;5.982;2022-10-17T01:02:33;100278.44;;;18.34;85.84
36234;BME280;43467;50.890;5.982;2022-10-17T01:04:58;100280.13;;;18.35;85.60
36234;BME280;43467;50.890;5.982;2022-10-17T01:07:26;100280.97;;;18.35;85.58
36234;BME280;43467;50.890;5.982;2022-10-17T01:09:52;100277.44;;;18.35;85.49
36234;BME280;43467;50.890;5.982;2022-10-17T01:12:24;100273.91;;;18.34;85.83
36234;BME280;43467;50.890;5.982;2022-10-17T01:15:13;100284.75;;;18.33;85.86
36234;BME280;43467;50.890;5.982;2022-10-17T01:17:51;100281.94;;;18.34;85.51
36234;BME280;43467;50.890;5.982;2022-10-17T01:31:45;100276.47;;;18.36;84.95
36234;BME280;43467;50.890;5.982;2022-10-17T01:34:33;100275.75;;;18.34;84.88
36234;BME280;43467;50.890;5.982;2022-10-17T01:37:20;100272.22;;;18.33;84.79
36234;BME280;43467;50.890;5.982;2022-10-17T01:45:22;100278.06;;;18.38;84.60
36234;BME280;43467;50.890;5.982;2022-10-17T01:47:51;100266.38;;;18.39;84.46
36234;BME280;43467;50.890;5.982;2022-10-17T01:50:22;100265.75;;;18.36;84.38
36234;BME280;43467;50.890;5.982;2022-10-17T01:52:56;100270.41;;;18.34;84.45
36234;BME280;43467;50.890;5.982;2022-10-17T01:55:27;100278.19;;;18.37;84.29
36234;BME280;43467;50.890;5.982;2022-10-17T01:58:00;100261.25;;;18.36;83.71
36234;BME280;43467;50.890;5.982;2022-10-17T02:00:28;100266.13;;;18.42;83.66
36234;BME280;43467;50.890;5.982;2022-10-17T02:03:01;100263.94;;;18.36;83.95
36234;BME280;43467;50.890;5.982;2022-10-17T02:05:35;100268.09;;;18.40;83.56
36234;BME280;43467;50.890;5.982;2022-10-17T02:08:02;100262.47;;;18.43;83.36
36234;BME280;43467;50.890;5.982;2022-10-17T02:10:56;100260.03;;;18.40;83.26
36234;BME280;43467;50.890;5.982;2022-10-17T02:22:15;100251.50;;;18.46;82.50
36234;BME280;43467;50.890;5.982;2022-10-17T02:25:08;100242.50;;;18.47;82.21
36234;BME280;43467;50.890;5.982;2022-10-17T02:27:52;100248.81;;;18.46;82.10
36234;BME280;43467;50.890;5.982;2022-10-17T02:30:36;100248.22;;;18.43;81.96
36234;BME280;43467;50.890;5.982;2022-10-17T02:33:11;100246.53;;;18.42;82.18
36234;BME280;43467;50.890;5.982;2022-10-17T02:35:42;100253.47;;;18.44;81.63
36234;BME280;43467;50.890;5.982;2022-10-17T02:38:11;100245.78;;;18.40;82.25
36234;BME280;43467;50.890;5.982;2022-10-17T02:40:39;100259.19;;;18.40;81.77
36234;BME280;43467;50.890;5.982;2022-10-17T02:43:05;100260.03;;;18.40;81.77
36234;BME280;43467;50.890;5.982;2022-10-17T02:45:31;100251.38;;;18.37;81.33
36234;BME280;43467;50.890;5.982;2022-10-17T02:51:05;100259.19;;;18.40;81.51
36234;BME280;43467;50.890;5.982;2022-10-17T02:53:38;100256.25;;;18.43;81.26
36234;BME280;43467;50.890;5.982;2022-10-17T02:56:14;100249.94;;;18.44;81.09
36234;BME280;43467;50.890;5.982;2022-10-17T02:58:42;100252.59;;;18.44;80.86
36234;BME280;43467;50.890;5.982;2022-10-17T03:01:11;100249.31;;;18.40;80.86
36234;BME280;43467;50.890;5.982;2022-10-17T03:03:37;100251.25;;;18.38;80.91
36234;BME280;43467;50.890;5.982;2022-10-17T03:06:02;100251.13;;;18.40;81.20
36234;BME280;43467;50.890;5.982;2022-10-17T03:08:28;100255.78;;;18.38;81.15
36234;BME280;43467;50.890;5.982;2022-10-17T03:10:53;100253.72;;;18.41;80.92
36234;BME280;43467;50.890;5.982;2022-10-17T03:13:19;100266.13;;;18.42;81.25
36234;BME280;43467;50.890;5.982;2022-10-17T03:15:44;100260.91;;;18.41;81.18
36234;BME280;43467;50.890;5.982;2022-10-17T03:18:10;100267.47;;;18.37;81.49
36234;BME280;43467;50.890;5.982;2022-10-17T03:20:35;100263.81;;;18.38;81.26
36234;BME280;43467;50.890;5.982;2022-10-17T03:23:01;100261.84;;;18.29;81.12
36234;BME280;43467;50.890;5.982;2022-10-17T03:25:26;100269.41;;;18.35;81.21
36234;BME280;43467;50.890;5.982;2022-10-17T03:27:52;100280.97;;;18.35;81.28
36234;BME280;43467;50.890;5.982;2022-10-17T03:30:18;100287.44;;;18.33;81.70
36234;BME280;43467;50.890;5.982;2022-10-17T03:32:44;100282.81;;;18.35;81.85
36234;BME280;43467;50.890;5.982;2022-10-17T03:35:09;100291.59;;;18.37;81.54
36234;BME280;43467;50.890;5.982;2022-10-17T03:37:34;100284.75;;;18.33;81.65
36234;BME280;43467;50.890;5.982;2022-10-17T03:40:00;100278.44;;;18.34;82.03
36234;BME280;43467;50.890;5.982;2022-10-17T03:42:25;100278.53;;;18.32;81.84
36234;BME280;43467;50.890;5.982;2022-10-17T03:44:50;100278.53;;;18.32;82.01
36234;BME280;43467;50.890;5.982;2022-10-17T03:47:16;100275.34;;;18.27;82.38
36234;BME280;43467;50.890;5.982;2022-10-17T03:49:41;100280.59;;;18.29;82.34
36234;BME280;43467;50.890;5.982;2022-10-17T03:52:13;100278.91;;;18.28;82.33
36234;BME280;43467;50.890;5.982;2022-10-17T03:54:39;100268.41;;;18.25;82.35
36234;BME280;43467;50.890;5.982;2022-10-17T03:57:05;100274.28;;;18.30;82.22
36234;BME280;43467;50.890;5.982;2022-10-17T03:59:30;100276.22;;;18.28;82.35
36234;BME280;43467;50.890;5.982;2022-10-17T04:01:56;100278.03;;;18.27;82.30
36234;BME280;43467;50.890;5.982;2022-10-17T04:04:21;100273.63;;;18.26;82.32
36234;BME280;43467;50.890;5.982;2022-10-17T04:06:46;100276.31;;;18.26;82.26
36234;BME280;43467;50.890;5.982;2022-10-17T04:09:12;100274.75;;;18.24;82.39
36234;BME280;43467;50.890;5.982;2022-10-17T04:11:37;100278.16;;;18.26;81.98
36234;BME280;43467;50.890;5.982;2022-10-17T04:14:03;100280.72;;;18.27;82.19
36234;BME280;43467;50.890;5.982;2022-10-17T04:16:28;100282.09;;;18.33;82.07
36234;BME280;43467;50.890;5.982;2022-10-17T04:18:56;100291.94;;;18.32;81.55
36234;BME280;43467;50.890;5.982;2022-10-17T04:21:23;100295.34;;;18.34;81.73
36234;BME280;43467;50.890;5.982;2022-10-17T04:23:57;100297.31;;;18.32;81.44
36234;BME280;43467;50.890;5.982;2022-10-17T04:26:23;100289.63;;;18.39;81.60
36234;BME280;43467;50.890;5.982;2022-10-17T04:28:49;100272.69;;;18.38;81.43
36234;BME280;43467;50.890;5.982;2022-10-17T04:31:15;100287.81;;;18.39;81.37
36234;BME280;43467;50.890;5.982;2022-10-17T04:33:41;100287.47;;;18.44;80.73
36234;BME280;43467;50.890;5.982;2022-10-17T04:36:10;100289.28;;;18.43;81.12
36234;BME280;43467;50.890;5.982;2022-10-17T04:38:36;100286.94;;;18.39;80.70
36234;BME280;43467;50.890;5.982;2022-10-17T04:41:04;100292.09;;;18.42;80.90
36234;BME280;43467;50.890;5.982;2022-10-17T04:43:30;100292.56;;;18.36;80.70
36234;BME280;43467;50.890;5.982;2022-10-17T04:45:57;100300.00;;;18.43;80.42
36234;BME280;43467;50.890;5.982;2022-10-17T04:48:22;100309.66;;;18.46;80.20
36234;BME280;43467;50.890;5.982;2022-10-17T04:53:19;100323.16;;;18.44;80.15
36234;BME280;43467;50.890;5.982;2022-10-17T04:55:45;100319.63;;;18.44;80.09
36234;BME280;43467;50.890;5.982;2022-10-17T04:58:10;100326.72;;;18.45;80.25
36234;BME280;43467;50.890;5.982;2022-10-17T05:00:35;100324.28;;;18.42;80.38
36234;BME280;43467;50.890;5.982;2022-10-17T05:03:01;100335.09;;;18.40;80.11
36234;BME280;43467;50.890;5.982;2022-10-17T05:05:26;100334.25;;;18.40;80.08
36234;BME280;43467;50.890;5.982;2022-10-17T05:07:52;100332.53;;;18.39;79.90
36234;BME280;43467;50.890;5.982;2022-10-17T05:10:17;100343.88;;;18.42;80.42
36234;BME280;43467;50.890;5.982;2022-10-17T05:12:42;100356.91;;;18.36;80.35
36234;BME280;43467;50.890;5.982;2022-10-17T05:15:08;100361.16;;;18.38;80.58
36234;BME280;43467;50.890;5.982;2022-10-17T05:17:33;100365.56;;;18.39;80.06
36234;BME280;43467;50.890;5.982;2022-10-17T05:19:59;100355.19;;;18.35;80.50
36234;BME280;43467;50.890;5.982;2022-10-17T05:22:24;100350.69;;;18.35;80.41
36234;BME280;43467;50.890;5.982;2022-10-17T05:24:49;100334.47;;;18.26;80.27
36234;BME280;43467;50.890;5.982;2022-10-17T05:27:15;100346.75;;;18.28;80.71
36234;BME280;43467;50.890;5.982;2022-10-17T05:29:40;100351.16;;;18.29;80.32
36234;BME280;43467;50.890;5.982;2022-10-17T05:32:05;100348.59;;;18.28;80.22
36234;BME280;43467;50.890;5.982;2022-10-17T05:34:32;100338.19;;;18.23;80.57
36234;BME280;43467;50.890;5.982;2022-10-17T05:36:58;100346.00;;;18.26;80.15
36234;BME280;43467;50.890;5.982;2022-10-17T05:39:23;100345.19;;;18.26;80.20
36234;BME280;43467;50.890;5.982;2022-10-17T05:41:48;100335.16;;;18.17;80.29
36234;BME280;43467;50.890;5.982;2022-10-17T05:44:15;100340.66;;;18.26;80.15
36234;BME280;43467;50.890;5.982;2022-10-17T05:46:40;100351.25;;;18.28;80.27
36234;BME280;43467;50.890;5.982;2022-10-17T05:49:06;100352.34;;;18.25;80.19
36234;BME280;43467;50.890;5.982;2022-10-17T05:51:34;100350.31;;;18.29;80.13
36234;BME280;43467;50.890;5.982;2022-10-17T05:53:59;100343.56;;;18.23;79.94
36234;BME280;43467;50.890;5.982;2022-10-17T05:56:24;100350.75;;;18.23;79.60
36234;BME280;43467;50.890;5.982;2022-10-17T05:58:50;100351.38;;;18.26;79.65
36234;BME280;43467;50.890;5.982;2022-10-17T06:01:15;100349.16;;;18.20;79.95
36234;BME280;43467;50.890;5.982;2022-10-17T06:03:41;100351.84;;;18.20;79.62
36234;BME280;43467;50.890;5.982;2022-10-17T06:06:11;100358.31;;;18.18;79.78
36234;BME280;43467;50.890;5.982;2022-10-17T06:08:37;100354.75;;;18.17;79.54
36234;BME280;43467;50.890;5.982;2022-10-17T06:11:03;100350.13;;;18.19;79.63
36234;BME280;43467;50.890;5.982;2022-10-17T06:13:28;100354.28;;;18.23;79.47
36234;BME280;43467;50.890;5.982;2022-10-17T06:15:54;100361.59;;;18.21;79.49
36234;BME280;43467;50.890;5.982;2022-10-17T06:18:19;100363.19;;;18.24;79.38
36234;BME280;43467;50.890;5.982;2022-10-17T06:20:45;100362.56;;;18.20;79.26
36234;BME280;43467;50.890;5.982;2022-10-17T06:23:10;100374.00;;;18.22;79.12
36234;BME280;43467;50.890;5.982;2022-10-17T06:25:35;100365.88;;;18.24;79.19
36234;BME280;43467;50.890;5.982;2022-10-17T06:28:01;100378.41;;;18.23;78.84
36234;BME280;43467;50.890;5.982;2022-10-17T06:30:27;100378.41;;;18.23;78.55
36234;BME280;43467;50.890;5.982;2022-10-17T06:32:52;100382.06;;;18.22;78.75
36234;BME280;43467;50.890;5.982;2022-10-17T06:35:18;100380.47;;;18.20;78.78
36234;BME280;43467;50.890;5.982;2022-10-17T06:37:44;100388.78;;;18.28;78.57
36234;BME280;43467;50.890;5.982;2022-10-17T06:40:10;100389.53;;;18.30;78.32
36234;BME280;43467;50.890;5.982;2022-10-17T06:42:37;100396.22;;;18.24;78.65
36234;BME280;43467;50.890;5.982;2022-10-17T06:45:03;100394.78;;;18.31;78.48
36234;BME280;43467;50.890;5.982;2022-10-17T06:47:29;100392.00;;;18.33;78.24
36234;BME280;43467;50.890;5.982;2022-10-17T06:49:54;100397.34;;;18.33;77.87
36234;BME280;43467;50.890;5.982;2022-10-17T06:52:20;100390.03;;;18.35;78.19
36234;BME280;43467;50.890;5.982;2022-10-17T06:54:45;100390.88;;;18.35;77.74
36234;BME280;43467;50.890;5.982;2022-10-17T06:57:11;100391.41;;;18.40;77.83
36234;BME280;43467;50.890;5.982;2022-10-17T06:59:36;100392.25;;;18.41;77.38
36234;BME280;43467;50.890;5.982;2022-10-17T07:02:01;100385.81;;;18.43;77.26
36234;BME280;43467;50.890;5.982;2022-10-17T07:04:27;100394.59;;;18.45;77.28
36234;BME280;43467;50.890;5.982;2022-10-17T07:06:52;100394.81;;;18.42;76.69
36234;BME280;43467;50.890;5.982;2022-10-17T07:09:18;100403.38;;;18.47;76.75
36234;BME280;43467;50.890;5.982;2022-10-17T07:11:44;100407.66;;;18.50;76.75
36234;BME280;43467;50.890;5.982;2022-10-17T07:14:09;100414.72;;;18.51;76.49
36234;BME280;43467;50.890;5.982;2022-10-17T07:16:35;100419.34;;;18.49;77.01
36234;BME280;43467;50.890;5.982;2022-10-17T07:19:01;100423.09;;;18.46;76.48
36234;BME280;43467;50.890;5.982;2022-10-17T07:21:26;100429.94;;;18.50;76.93
36234;BME280;43467;50.890;5.982;2022-10-17T07:23:51;100430.06;;;18.49;76.74
36234;BME280;43467;50.890;5.982;2022-10-17T07:26:18;100434.34;;;18.51;77.04
36234;BME280;43467;50.890;5.982;2022-10-17T07:28:45;100441.97;;;18.58;76.49
36234;BME280;43467;50.890;5.982;2022-10-17T07:31:14;100447.69;;;18.53;76.51
36234;BME280;43467;50.890;5.982;2022-10-17T07:33:40;100446.13;;;18.62;76.30
36234;BME280;43467;50.890;5.982;2022-10-17T07:36:06;100451.16;;;18.66;76.17
36234;BME280;43467;50.890;5.982;2022-10-17T07:38:33;100448.47;;;18.66;76.48
36234;BME280;43467;50.890;5.982;2022-10-17T07:41:05;100449.28;;;18.67;75.93
36234;BME280;43467;50.890;5.982;2022-10-17T07:43:31;100458.97;;;18.69;76.40
36234;BME280;43467;50.890;5.982;2022-10-17T07:45:57;100461.28;;;18.74;76.35
36234;BME280;43467;50.890;5.982;2022-10-17T07:48:23;100459.13;;;18.79;76.32
36234;BME280;43467;50.890;5.982;2022-10-17T07:50:49;100465.84;;;18.84;76.17
36234;BME280;43467;50.890;5.982;2022-10-17T07:53:15;100460.88;;;18.91;76.03
36234;BME280;43467;50.890;5.982;2022-10-17T07:55:41;100480.13;;;18.96;75.91
36234;BME280;43467;50.890;5.982;2022-10-17T07:58:07;100465.66;;;18.98;75.34
36234;BME280;43467;50.890;5.982;2022-10-17T08:00:33;100467.34;;;18.99;75.22
36234;BME280;43467;50.890;5.982;2022-10-17T08:02:59;100475.19;;;19.02;75.41
36234;BME280;43467;50.890;5.982;2022-10-17T08:05:24;100477.72;;;19.04;75.04
36234;BME280;43467;50.890;5.982;2022-10-17T08:07:49;100477.63;;;19.06;74.53
36234;BME280;43467;50.890;5.982;2022-10-17T08:10:15;100487.38;;;19.07;74.65
36234;BME280;43467;50.890;5.982;2022-10-17T08:12:40;100494.22;;;19.11;74.32
36234;BME280;43467;50.890;5.982;2022-10-17T08:15:06;100494.44;;;19.08;73.99
36234;BME280;43467;50.890;5.982;2022-10-17T08:17:36;100507.13;;;19.06;73.77
36234;BME280;43467;50.890;5.982;2022-10-17T08:20:03;100515.91;;;19.08;74.06
36234;BME280;43467;50.890;5.982;2022-10-17T08:22:29;100505.41;;;19.04;74.32
36234;BME280;43467;50.890;5.982;2022-10-17T08:24:55;100528.84;;;19.02;74.07
36234;BME280;43467;50.890;5.982;2022-10-17T08:27:20;100524.56;;;19.00;74.08
36234;BME280;43467;50.890;5.982;2022-10-17T08:29:49;100528.84;;;19.02;73.94
36234;BME280;43467;50.890;5.982;2022-10-17T08:32:18;100534.34;;;19.12;73.77
36234;BME280;43467;50.890;5.982;2022-10-17T08:34:43;100531.94;;;19.20;73.54
36234;BME280;43467;50.890;5.982;2022-10-17T08:37:08;100534.28;;;19.36;73.57
36234;BME280;43467;50.890;5.982;2022-10-17T08:39:34;100538.28;;;19.43;72.95
36234;BME280;43467;50.890;5.982;2022-10-17T08:47:44;100546.09;;;19.46;72.67
36234;BME280;43467;50.890;5.982;2022-10-17T08:55:38;100549.38;;;19.49;72.63
36234;BME280;43467;50.890;5.982;2022-10-17T08:58:16;100552.69;;;19.53;72.41
36234;BME280;43467;50.890;5.982;2022-10-17T09:07:20;100557.19;;;19.53;72.41
36234;BME280;43467;50.890;5.982;2022-10-17T09:12:50;100571.03;;;19.59;72.80
36234;BME280;43467;50.890;5.982;2022-10-17T09:15:41;100578.31;;;19.57;72.36
36234;BME280;43467;50.890;5.982;2022-10-17T09:18:19;100574.56;;;19.60;72.80
36234;BME280;43467;50.890;5.982;2022-10-17T09:20:50;100584.97;;;19.64;72.43
36234;BME280;43467;50.890;5.982;2022-10-17T09:23:23;100584.97;;;19.64;72.77
36234;BME280;43467;50.890;5.982;2022-10-17T09:25:53;100582.13;;;19.66;72.95
36234;BME280;43467;50.890;5.982;2022-10-17T09:28:33;100591.28;;;19.63;72.58
36234;BME280;43467;50.890;5.982;2022-10-17T09:31:04;100589.34;;;19.65;72.67
36234;BME280;43467;50.890;5.982;2022-10-17T09:33:42;100583.09;;;19.65;72.53
36234;BME280;43467;50.890;5.982;2022-10-17T09:36:30;100586.53;;;19.67;72.96
36234;BME280;43467;50.890;5.982;2022-10-17T09:39:02;100594.34;;;19.70;73.40
36234;BME280;43467;50.890;5.982;2022-10-17T09:41:36;100590.69;;;19.71;72.85
36234;BME280;43467;50.890;5.982;2022-10-17T09:46:37;100600.13;;;19.76;72.45
36234;BME280;43467;50.890;5.982;2022-10-17T09:49:18;100597.28;;;19.78;72.90
36234;BME280;43467;50.890;5.982;2022-10-17T09:51:46;100616.09;;;19.78;72.96
36234;BME280;43467;50.890;5.982;2022-10-17T09:54:21;100615.03;;;19.80;72.89
36234;BME280;43467;50.890;5.982;2022-10-17T09:57:04;100622.22;;;19.80;71.88
36234;BME280;43467;50.890;5.982;2022-10-17T09:59:38;100624.69;;;19.83;72.42
36234;BME280;43467;50.890;5.982;2022-10-17T10:02:20;100625.41;;;19.85;72.00
36234;BME280;43467;50.890;5.982;2022-10-17T10:05:03;100631.88;;;19.82;72.34
36234;BME280;43467;50.890;5.982;2022-10-17T10:07:31;100639.06;;;19.82;72.19
36234;BME280;43467;50.890;5.982;2022-10-17T10:09:58;100625.63;;;19.82;71.70
36234;BME280;43467;50.890;5.982;2022-10-17T10:12:30;100637.34;;;19.81;72.31
36234;BME280;43467;50.890;5.982;2022-10-17T10:14:57;100637.50;;;19.79;72.16
36234;BME280;43467;50.890;5.982;2022-10-17T10:20:23;100591.56;;;19.82;72.20
36234;BME280;43467;50.890;5.982;2022-10-17T10:23:15;100585.09;;;19.85;71.98
36234;BME280;43467;50.890;5.982;2022-10-17T10:25:56;100597.94;;;19.92;72.20
36234;BME280;43467;50.890;5.982;2022-10-17T10:28:26;100612.72;;;19.98;72.36
36234;BME280;43467;50.890;5.982;2022-10-17T10:30:53;100620.66;;;20.00;72.51
36234;BME280;43467;50.890;5.982;2022-10-17T10:33:26;100619.44;;;20.04;72.42
36234;BME280;43467;50.890;5.982;2022-10-17T10:36:10;100623.59;;;20.08;71.77
36234;BME280;43467;50.890;5.982;2022-10-17T10:38:38;100636.69;;;20.12;71.87
36234;BME280;43467;50.890;5.982;2022-10-17T10:41:09;100632.91;;;20.15;72.04
36234;BME280;43467;50.890;5.982;2022-10-17T10:43:44;100640.84;;;20.16;72.03
36234;BME280;43467;50.890;5.982;2022-10-17T10:46:19;100656.84;;;20.18;71.48
36234;BME280;43467;50.890;5.982;2022-10-17T10:51:19;100649.56;;;20.31;71.63
36234;BME280;43467;50.890;5.982;2022-10-17T10:56:25;100659.09;;;20.46;71.10
36234;BME280;43467;50.890;5.982;2022-10-17T10:59:02;100667.16;;;20.46;71.33
36234;BME280;43467;50.890;5.982;2022-10-17T11:04:06;100682.56;;;20.55;71.68
36234;BME280;43467;50.890;5.982;2022-10-17T11:06:36;100683.69;;;20.53;71.65
36234;BME280;43467;50.890;5.982;2022-10-17T11:11:47;100688.69;;;20.57;71.93
36234;BME280;43467;50.890;5.982;2022-10-17T11:14:27;100692.09;;;20.59;71.86
36234;BME280;43467;50.890;5.982;2022-10-17T11:19:32;100682.56;;;20.44;71.99
36234;BME280;43467;50.890;5.982;2022-10-17T11:24:33;100701.41;;;20.44;72.13
36234;BME280;43467;50.890;5.982;2022-10-17T11:27:03;100700.03;;;20.38;71.94
36234;BME280;43467;50.890;5.982;2022-10-17T11:29:34;100716.06;;;20.40;71.52
36234;BME280;43467;50.890;5.982;2022-10-17T11:34:48;100734.41;;;20.35;70.99
36234;BME280;43467;50.890;5.982;2022-10-17T11:37:19;100725.59;;;20.33;71.21
36234;BME280;43467;50.890;5.982;2022-10-17T11:40:02;100722.66;;;20.36;71.22
36234;BME280;43467;50.890;5.982;2022-10-17T11:42:40;100726.56;;;20.32;71.51
36234;BME280;43467;50.890;5.982;2022-10-17T11:45:16;100720.94;;;20.35;71.58
36234;BME280;43467;50.890;5.982;2022-10-17T11:47:52;100733.91;;;20.30;71.38
36234;BME280;43467;50.890;5.982;2022-10-17T11:50:26;100729.50;;;20.29;71.97
36234;BME280;43467;50.890;5.982;2022-10-17T11:53:00;100736.78;;;20.27;71.93
36234;BME280;43467;50.890;5.982;2022-10-17T11:55:28;100736.19;;;20.23;71.59
36234;BME280;43467;50.890;5.982;2022-10-17T12:01:03;100731.47;;;20.38;72.05
36234;BME280;43467;50.890;5.982;2022-10-17T12:09:25;100744.69;;;20.41;72.47
36234;BME280;43467;50.890;5.982;2022-10-17T12:11:58;100742.34;;;20.36;72.35
36234;BME280;43467;50.890;5.982;2022-10-17T12:14:44;100748.00;;;20.33;73.15
36234;BME280;43467;50.890;5.982;2022-10-17T12:30:51;100756.97;;;20.21;73.23
36234;BME280;43467;50.890;5.982;2022-10-17T12:33:20;100759.53;;;20.23;73.52
36234;BME280;43467;50.890;5.982;2022-10-17T12:35:50;100750.72;;;20.21;73.63
36234;BME280;43467;50.890;5.982;2022-10-17T12:51:07;100773.91;;;20.11;74.16
36234;BME280;43467;50.890;5.982;2022-10-17T12:53:56;100768.78;;;20.08;74.18
36234;BME280;43467;50.890;5.982;2022-10-17T12:59:00;100787.97;;;20.14;73.58
36234;BME280;43467;50.890;5.982;2022-10-17T13:01:33;100788.09;;;20.13;73.88
36234;BME280;43467;50.890;5.982;2022-10-17T13:04:01;100782.84;;;20.11;73.90
36234;BME280;43467;50.890;5.982;2022-10-17T13:06:31;100789.59;;;20.17;74.28
36234;BME280;43467;50.890;5.982;2022-10-17T13:09:26;100788.31;;;20.10;73.96
36234;BME280;43467;50.890;5.982;2022-10-17T13:11:53;100786.66;;;20.20;74.40
36234;BME280;43467;50.890;5.982;2022-10-17T13:14:20;100778.94;;;20.15;74.17
36234;BME280;43467;50.890;5.982;2022-10-17T13:17:05;100784.81;;;20.20;73.83
36234;BME280;43467;50.890;5.982;2022-10-17T13:19:43;100794.38;;;20.24;74.30
36234;BME280;43467;50.890;5.982;2022-10-17T13:22:13;100795.44;;;20.22;73.93
36234;BME280;43467;50.890;5.982;2022-10-17T13:24:40;100801.56;;;20.24;74.24
36234;BME280;43467;50.890;5.982;2022-10-17T13:29:46;100803.03;;;20.17;74.66
36234;BME280;43467;50.890;5.982;2022-10-17T13:32:11;100802.78;;;20.20;74.53
36234;BME280;43467;50.890;5.982;2022-10-17T13:34:36;100804.38;;;20.22;74.56
36234;BME280;43467;50.890;5.982;2022-10-17T13:37:05;100808.28;;;20.18;75.27
36234;BME280;43467;50.890;5.982;2022-10-17T13:39:38;100806.97;;;20.24;75.12
36234;BME280;43467;50.890;5.982;2022-10-17T13:42:05;100821.13;;;20.26;75.25
36234;BME280;43467;50.890;5.982;2022-10-17T13:44:32;100810.50;;;20.24;75.21
36234;BME280;43467;50.890;5.982;2022-10-17T13:46:59;100816.13;;;20.21;75.50
36234;BME280;43467;50.890;5.982;2022-10-17T13:51:51;100816.97;;;20.22;75.23
36234;BME280;43467;50.890;5.982;2022-10-17T13:54:24;100826.41;;;20.27;75.50
36234;BME280;43467;50.890;5.982;2022-10-17T13:56:56;100837.63;;;20.21;76.04
36234;BME280;43467;50.890;5.982;2022-10-17T13:59:29;100843.75;;;20.23;75.77
36234;BME280;43467;50.890;5.982;2022-10-17T14:16:23;100869.22;;;20.07;77.73
36234;BME280;43467;50.890;5.982;2022-10-17T14:18:50;100868.97;;;20.10;77.43
36234;BME280;43467;50.890;5.982;2022-10-17T14:21:25;100879.44;;;20.02;78.37
36234;BME280;43467;50.890;5.982;2022-10-17T14:26:47;100877.38;;;20.05;78.61
36234;BME280;43467;50.890;5.982;2022-10-17T14:29:24;100887.94;;;20.08;79.41
36234;BME280;43467;50.890;5.982;2022-10-17T14:32:03;100883.00;;;20.02;80.14
36234;BME280;43467;50.890;5.982;2022-10-17T14:34:36;100881.34;;;19.88;80.88
36234;BME280;43467;50.890;5.982;2022-10-17T14:37:08;100894.03;;;19.86;81.41
36234;BME280;43467;50.890;5.982;2022-10-17T14:39:34;100877.72;;;19.77;81.91
36234;BME280;43467;50.890;5.982;2022-10-17T14:41:59;100887.56;;;19.89;81.63
36234;BME280;43467;50.890;5.982;2022-10-17T14:44:30;100864.94;;;19.80;82.68
36234;BME280;43467;50.890;5.982;2022-10-17T14:46:59;100883.63;;;19.82;82.81
36234;BME280;43467;50.890;5.982;2022-10-17T14:49:37;100857.53;;;19.71;83.40
36234;BME280;43467;50.890;5.982;2022-10-17T14:52:32;100886.13;;;19.72;83.62
36234;BME280;43467;50.890;5.982;2022-10-17T14:54:59;100900.31;;;19.74;83.86
36234;BME280;43467;50.890;5.982;2022-10-17T14:57:44;100906.00;;;19.70;84.68
36234;BME280;43467;50.890;5.982;2022-10-17T15:00:18;100923.84;;;19.71;84.60
36234;BME280;43467;50.890;5.982;2022-10-17T15:02:45;100929.16;;;19.60;85.18
36234;BME280;43467;50.890;5.982;2022-10-17T15:05:11;100938.09;;;19.47;86.24
36234;BME280;43467;50.890;5.982;2022-10-17T15:07:37;100938.72;;;19.38;87.43
36234;BME280;43467;50.890;5.982;2022-10-17T15:10:03;100946.34;;;19.44;87.48
36234;BME280;43467;50.890;5.982;2022-10-17T15:12:28;100955.03;;;19.35;88.40
36234;BME280;43467;50.890;5.982;2022-10-17T15:14:55;100954.59;;;19.29;88.75
36234;BME280;43467;50.890;5.982;2022-10-17T15:17:27;100958.16;;;19.29;89.29